Time;durP1;ratioP1;P1;durP2;ratioP2;P2;SDS_P1;SDS_P2;PMS_P1;PMS_P2;Temp;Humidity;BMP_temperature;BMP_pressure;BME280_temperature;BME280_humidity;BME280_pressure;Samples;Min_cycle;Max_cycle;Signal;HPM_P1;HPM_P2
2023/06/24 00:01:34;;;;;;;9.65;6.60;;;;;;;17.32;100.00;98875.84;4484112;31;20446;-65
2023/06/24 00:04:03;;;;;;;10.73;6.68;;;;;;;17.41;100.00;98879.25;4484369;31;20096;-65
2023/06/24 00:06:30;;;;;;;10.25;6.78;;;;;;;17.48;100.00;98884.66;4484375;31;20092;-65
2023/06/24 00:09:00;;;;;;;10.18;6.70;;;;;;;17.42;100.00;98880.87;4481471;31;20486;-65
2023/06/24 00:11:29;;;;;;;8.68;6.37;;;;;;;17.36;100.00;98876.28;4476789;32;20096;-65
2023/06/24 00:13:57;;;;;;;10.25;6.93;;;;;;;17.37;100.00;98862.88;4474969;32;20089;-65
2023/06/24 00:16:27;;;;;;;12.85;7.32;;;;;;;17.30;100.00;98861.12;4477087;32;20096;-65
2023/06/24 00:19:00;;;;;;;11.05;7.10;;;;;;;17.33;100.00;98850.19;4475998;32;20122;-65
2023/06/24 00:21:31;;;;;;;11.48;7.18;;;;;;;17.36;100.00;98844.53;4474929;31;20097;-66
2023/06/24 00:24:02;;;;;;;11.07;7.32;;;;;;;17.34;100.00;98847.34;4475944;31;20148;-65
2023/06/24 00:26:29;;;;;;;11.40;6.50;;;;;;;17.29;100.00;98843.56;4476629;32;20118;-66
2023/06/24 00:28:56;;;;;;;12.57;6.57;;;;;;;17.32;100.00;98848.53;4475825;32;20089;-66
2023/06/24 00:31:23;;;;;;;11.45;7.20;;;;;;;17.34;100.00;98842.06;4472965;32;20180;-66
2023/06/24 00:33:52;;;;;;;10.90;7.10;;;;;;;17.22;100.00;98848.78;4468770;32;20128;-66
2023/06/24 00:36:19;;;;;;;11.05;7.00;;;;;;;17.24;100.00;98848.59;4468321;32;20092;-66
2023/06/24 00:38:48;;;;;;;10.75;6.95;;;;;;;17.31;100.00;98833.66;4468028;32;20147;-66
2023/06/24 00:41:19;;;;;;;9.50;7.05;;;;;;;17.28;100.00;98831.38;4468348;32;20112;-66
2023/06/24 00:43:46;;;;;;;9.57;6.78;;;;;;;17.27;100.00;98821.75;4467610;32;20629;-66
2023/06/24 00:46:15;;;;;;;10.07;6.45;;;;;;;17.31;100.00;98815.94;4466981;32;20785;-66
2023/06/24 00:48:42;;;;;;;10.07;5.87;;;;;;;17.36;100.00;98816.19;4467236;32;20146;-66
2023/06/24 00:51:09;;;;;;;10.35;6.30;;;;;;;17.40;100.00;98815.88;4466807;32;20119;-66
2023/06/24 00:53:38;;;;;;;10.70;6.37;;;;;;;17.36;100.00;98828.63;4466914;32;20148;-66
2023/06/24 00:56:05;;;;;;;9.35;6.53;;;;;;;17.33;100.00;98829.00;4468469;32;20100;-67
2023/06/24 00:58:35;;;;;;;10.95;6.18;;;;;;;17.31;100.00;98823.06;4468535;32;20123;-67
2023/06/24 01:01:02;;;;;;;10.55;6.30;;;;;;;17.27;100.00;98825.22;4470274;32;20120;-66
2023/06/24 01:03:30;;;;;;;10.02;6.07;;;;;;;17.25;100.00;98802.59;4470333;32;20119;-66
2023/06/24 01:05:57;;;;;;;10.15;6.57;;;;;;;17.29;100.00;98815.28;4469166;32;20451;-66
2023/06/24 01:08:25;;;;;;;9.45;5.82;;;;;;;17.31;100.00;98805.34;4469040;32;20555;-66
2023/06/24 01:10:52;;;;;;;8.55;5.65;;;;;;;17.19;100.00;98802.28;4482775;32;20458;-67
2023/06/24 01:13:19;;;;;;;8.23;5.80;;;;;;;17.29;100.00;98790.63;4479793;31;20131;-66
2023/06/24 01:15:48;;;;;;;9.00;5.90;;;;;;;17.29;100.00;98787.97;4470323;32;20123;-67
2023/06/24 01:18:40;;;;;;;9.35;4.68;;;;;;;17.23;100.00;98783.41;4469061;32;20172;-67
2023/06/24 01:21:25;;;;;;;7.78;5.40;;;;;;;17.24;100.00;98788.53;4468877;32;20139;-67
2023/06/24 01:24:01;;;;;;;7.10;5.03;;;;;;;17.26;100.00;98801.56;4470350;32;20459;-66
2023/06/24 01:26:53;;;;;;;7.28;5.47;;;;;;;17.30;100.00;98801.03;4470256;32;20422;-67
2023/06/24 01:29:44;;;;;;;8.45;5.37;;;;;;;17.22;100.00;98787.88;4470296;32;20111;-66
2023/06/24 01:32:36;;;;;;;8.60;4.90;;;;;;;17.25;100.00;98792.00;4469946;32;20089;-66
2023/06/24 01:35:09;;;;;;;9.27;5.80;;;;;;;17.25;100.00;98795.47;4469061;32;20096;-66
2023/06/24 01:37:49;;;;;;;7.47;5.28;;;;;;;17.20;100.00;98787.25;4470159;32;20143;-66
2023/06/24 01:40:22;;;;;;;11.52;5.95;;;;;;;17.14;100.00;98772.91;4469125;32;20088;-66
2023/06/24 01:42:50;;;;;;;8.68;5.45;;;;;;;17.10;100.00;98765.50;4469974;32;20123;-66
2023/06/24 01:45:25;;;;;;;9.82;5.75;;;;;;;17.10;100.00;98768.16;4469984;32;20158;-66
2023/06/24 01:48:06;;;;;;;9.18;5.85;;;;;;;17.02;100.00;98769.84;4468969;32;20097;-66
2023/06/24 01:50:35;;;;;;;13.38;6.10;;;;;;;17.05;100.00;98763.38;4468675;32;20093;-66
2023/06/24 01:53:07;;;;;;;25.35;5.82;;;;;;;17.07;100.00;98755.28;4468276;32;20084;-66
2023/06/24 01:55:37;;;;;;;8.70;5.20;;;;;;;16.97;100.00;98755.50;4470195;32;20085;-66
2023/06/24 01:58:05;;;;;;;7.95;5.22;;;;;;;17.04;100.00;98751.16;4468656;32;20182;-66
2023/06/24 02:00:34;;;;;;;8.55;5.05;;;;;;;17.03;100.00;98741.56;4468673;32;20084;-66
2023/06/24 02:03:04;;;;;;;10.48;5.53;;;;;;;16.97;100.00;98744.91;4468452;32;20088;-66
2023/06/24 02:05:32;;;;;;;8.15;4.85;;;;;;;17.02;100.00;98747.88;4468656;32;20089;-66
2023/06/24 02:08:02;;;;;;;9.35;6.35;;;;;;;16.92;100.00;98736.72;4468400;32;20582;-66
2023/06/24 02:10:30;;;;;;;9.75;5.78;;;;;;;16.98;100.00;98751.87;4478639;32;20095;-66
2023/06/24 02:12:59;;;;;;;9.70;5.82;;;;;;;16.91;100.00;98750.94;4479390;32;20153;-66
2023/06/24 02:15:27;;;;;;;9.20;6.03;;;;;;;16.87;100.00;98769.00;4466853;32;20572;-66
2023/06/24 02:17:56;;;;;;;7.07;5.22;;;;;;;16.91;100.00;98757.06;4467648;32;20467;-65
2023/06/24 02:20:26;;;;;;;8.52;6.05;;;;;;;16.85;100.00;98761.22;4467280;32;20160;-65
2023/06/24 02:22:55;;;;;;;10.20;5.93;;;;;;;16.80;100.00;98754.78;4469849;32;20569;-66
2023/06/24 02:25:23;;;;;;;10.57;5.50;;;;;;;16.74;100.00;98756.31;4468677;32;20143;-65
2023/06/24 02:27:52;;;;;;;11.00;6.03;;;;;;;16.82;100.00;98764.22;4466292;32;20580;-65
2023/06/24 02:30:23;;;;;;;9.95;5.68;;;;;;;16.77;100.00;98763.91;4466566;32;20167;-65
2023/06/24 02:32:51;;;;;;;7.85;5.45;;;;;;;16.73;100.00;98772.38;4466474;32;20415;-66
2023/06/24 02:35:19;;;;;;;12.25;5.65;;;;;;;16.72;100.00;98768.91;4453664;32;20123;-66
2023/06/24 02:37:46;;;;;;;9.60;4.87;;;;;;;16.66;100.00;98778.38;4467852;32;20122;-66
2023/06/24 02:40:16;;;;;;;9.00;5.47;;;;;;;16.61;100.00;98769.34;4466566;32;20128;-66
2023/06/24 02:42:43;;;;;;;11.23;4.97;;;;;;;16.48;100.00;98768.06;4467875;32;20119;-65
2023/06/24 02:45:12;;;;;;;9.95;4.65;;;;;;;16.58;100.00;98770.50;4473341;32;20161;-65
2023/06/24 02:47:41;;;;;;;5.15;3.62;;;;;;;16.50;100.00;98771.38;4485224;31;20088;-65
2023/06/24 02:50:10;;;;;;;10.52;4.62;;;;;;;16.61;100.00;98783.38;4484110;32;20119;-65
2023/06/24 02:52:38;;;;;;;5.47;3.70;;;;;;;16.58;100.00;98778.44;4484190;32;20100;-65
2023/06/24 02:55:07;;;;;;;6.93;3.87;;;;;;;16.56;100.00;98771.66;4485558;31;20172;-65
2023/06/24 02:57:38;;;;;;;6.50;4.07;;;;;;;16.53;100.00;98790.53;4485229;31;20446;-65
2023/06/24 03:00:12;;;;;;;6.62;4.00;;;;;;;16.50;100.00;98803.13;4485457;31;20112;-66
2023/06/24 03:02:44;;;;;;;4.47;3.50;;;;;;;16.49;100.00;98805.94;4483900;32;20116;-65
2023/06/24 03:05:11;;;;;;;4.28;3.40;;;;;;;16.44;100.00;98811.75;4483853;32;20184;-65
2023/06/24 03:07:38;;;;;;;6.75;3.60;;;;;;;16.39;100.00;98800.84;4485005;31;20097;-65
2023/06/24 03:10:06;;;;;;;7.12;3.83;;;;;;;16.44;100.00;98801.16;4476370;32;20834;-65
2023/06/24 03:12:34;;;;;;;8.60;4.53;;;;;;;16.40;100.00;98794.56;4470621;32;20097;-65
2023/06/24 03:15:02;;;;;;;5.43;3.45;;;;;;;16.34;100.00;98792.62;4483306;31;20101;-65
2023/06/24 03:17:31;;;;;;;8.23;3.25;;;;;;;16.31;100.00;98787.69;4483514;31;20065;-65
2023/06/24 03:19:59;;;;;;;6.43;3.10;;;;;;;16.32;100.00;98778.72;4483448;32;20126;-65
2023/06/24 03:22:26;;;;;;;8.13;2.80;;;;;;;16.33;100.00;98783.03;4483419;32;20108;-65
2023/06/24 03:24:53;;;;;;;4.95;2.85;;;;;;;16.32;100.00;98789.31;4483314;31;20089;-65
2023/06/24 03:27:21;;;;;;;5.43;2.85;;;;;;;16.34;100.00;98789.16;4483384;31;20454;-65
2023/06/24 03:29:48;;;;;;;4.15;3.03;;;;;;;16.35;100.00;98799.56;4483174;31;20138;-65
2023/06/24 03:32:16;;;;;;;4.82;2.60;;;;;;;16.31;100.00;98799.06;4483211;31;20084;-65
2023/06/24 03:34:44;;;;;;;4.15;2.70;;;;;;;16.35;100.00;98802.22;4482799;32;20112;-65
2023/06/24 03:37:11;;;;;;;5.20;3.12;;;;;;;16.34;100.00;98807.69;4483251;31;20421;-65
2023/06/24 03:39:38;;;;;;;4.22;3.15;;;;;;;16.36;100.00;98813.59;4483020;31;20118;-65
2023/06/24 03:42:06;;;;;;;8.93;2.97;;;;;;;16.27;100.00;98812.81;4470215;32;20163;-65
2023/06/24 03:44:33;;;;;;;4.07;3.22;;;;;;;16.29;100.00;98813.44;4484800;31;20092;-65
2023/06/24 03:47:01;;;;;;;4.12;2.78;;;;;;;16.31;100.00;98827.34;4484943;31;20096;-65
2023/06/24 03:49:29;;;;;;;4.93;2.62;;;;;;;16.34;100.00;98821.72;4484537;31;20615;-65
2023/06/24 03:51:56;;;;;;;4.93;2.35;;;;;;;16.31;100.00;98824.69;4484869;31;20101;-65
2023/06/24 03:54:24;;;;;;;8.80;2.62;;;;;;;16.37;100.00;98831.12;4484279;31;20085;-65
2023/06/24 03:56:51;;;;;;;3.58;2.30;;;;;;;16.50;100.00;98844.56;4484687;31;20118;-65
2023/06/24 03:59:18;;;;;;;3.30;2.40;;;;;;;16.57;100.00;98852.66;4477466;32;20096;-65
2023/06/24 04:01:45;;;;;;;5.22;2.53;;;;;;;16.55;100.00;98857.28;4468923;32;20188;-65
2023/06/24 04:04:13;;;;;;;3.42;2.00;;;;;;;16.61;100.00;98867.19;4468845;32;20140;-65
2023/06/24 04:06:40;;;;;;;4.82;2.20;;;;;;;16.65;100.00;98871.13;4468969;32;20623;-65
2023/06/24 04:09:08;;;;;;;2.95;2.08;;;;;;;16.73;100.00;98860.50;4468654;32;20144;-65
2023/06/24 04:11:36;;;;;;;6.22;2.30;;;;;;;16.76;100.00;98875.19;4468823;32;20154;-65
2023/06/24 04:14:06;;;;;;;2.65;1.92;;;;;;;16.91;100.00;98875.31;4479670;32;20103;-65
2023/06/24 04:16:33;;;;;;;4.00;1.85;;;;;;;16.86;100.00;98883.72;4486377;31;20153;-65
2023/06/24 04:19:01;;;;;;;1.48;1.10;;;;;;;16.97;100.00;98856.91;4484809;32;20172;-65
2023/06/24 04:21:28;;;;;;;2.72;1.40;;;;;;;17.05;100.00;98871.91;4486353;31;20122;-65
2023/06/24 04:23:55;;;;;;;5.00;1.50;;;;;;;17.09;100.00;98875.03;4486510;31;20096;-65
2023/06/24 04:26:24;;;;;;;1.42;1.20;;;;;;;17.05;100.00;98879.00;4486375;31;20183;-65
2023/06/24 04:28:52;;;;;;;1.70;1.17;;;;;;;17.15;100.00;98867.22;4486238;31;20556;-66
2023/06/24 04:31:19;;;;;;;1.17;0.90;;;;;;;17.18;100.00;98885.38;4486274;31;20598;-66
2023/06/24 04:33:46;;;;;;;4.62;1.25;;;;;;;17.41;100.00;98875.75;4486134;31;20506;-66
2023/06/24 04:36:14;;;;;;;4.30;1.30;;;;;;;17.45;100.00;98883.16;4486108;32;20522;-65
2023/06/24 04:38:41;;;;;;;2.10;1.12;;;;;;;17.52;100.00;98883.28;4485097;32;20163;-66
2023/06/24 04:41:08;;;;;;;3.00;1.05;;;;;;;17.64;100.00;98876.56;4485956;32;20111;-66
2023/06/24 04:43:35;;;;;;;1.65;0.70;;;;;;;17.66;100.00;98873.72;4485950;31;20437;-66
2023/06/24 04:46:02;;;;;;;3.70;1.00;;;;;;;17.63;100.00;98874.91;4486058;31;20115;-66
2023/06/24 04:48:30;;;;;;;1.35;1.00;;;;;;;17.74;100.00;98865.69;4485839;32;20154;-66
2023/06/24 04:50:58;;;;;;;1.25;0.93;;;;;;;17.86;100.00;98877.47;4485924;31;20429;-66
2023/06/24 04:53:25;;;;;;;1.30;0.75;;;;;;;17.82;100.00;98876.22;4486147;31;20485;-66
2023/06/24 04:55:52;;;;;;;1.80;0.70;;;;;;;17.94;100.00;98870.50;4485882;31;20109;-66
2023/06/24 04:58:19;;;;;;;0.82;0.70;;;;;;;17.83;100.00;98877.84;4486089;31;20096;-66
2023/06/24 05:00:46;;;;;;;5.30;0.85;;;;;;;17.99;100.00;98870.78;4485941;31;20492;-66
2023/06/24 05:03:14;;;;;;;3.42;0.80;;;;;;;17.94;100.00;98866.03;4486058;31;20179;-64
2023/06/24 05:05:41;;;;;;;1.87;0.75;;;;;;;18.03;100.00;98874.69;4485394;31;20096;-65
2023/06/24 05:08:09;;;;;;;0.60;0.50;;;;;;;18.08;100.00;98874.97;4485892;31;20103;-66
2023/06/24 05:10:36;;;;;;;0.73;0.50;;;;;;;18.02;100.00;98878.38;4475064;32;20120;-66
2023/06/24 05:13:04;;;;;;;2.90;0.80;;;;;;;18.07;100.00;98857.44;4474673;32;20145;-66
2023/06/24 05:15:31;;;;;;;1.70;1.00;;;;;;;18.12;100.00;98862.16;4485773;31;20096;-66
2023/06/24 05:17:59;;;;;;;2.42;0.60;;;;;;;18.24;100.00;98863.34;4486055;32;20511;-66
2023/06/24 05:20:26;;;;;;;0.60;0.50;;;;;;;18.24;100.00;98871.31;4485710;32;20163;-66
2023/06/24 05:22:54;;;;;;;0.93;0.50;;;;;;;18.14;100.00;98882.22;4486051;31;20100;-66
2023/06/24 05:25:22;;;;;;;1.50;0.70;;;;;;;18.25;100.00;98871.13;4475883;31;20141;-66
2023/06/24 05:27:49;;;;;;;1.20;0.70;;;;;;;18.32;100.00;98875.69;4476671;31;20149;-66
2023/06/24 05:30:16;;;;;;;0.90;0.70;;;;;;;18.37;100.00;98878.63;4476552;31;20184;-66
2023/06/24 05:32:44;;;;;;;0.55;0.50;;;;;;;18.42;100.00;98886.84;4472846;32;20502;-66
2023/06/24 05:35:11;;;;;;;1.37;0.70;;;;;;;18.43;100.00;98888.50;4478102;32;20139;-66
2023/06/24 05:37:38;;;;;;;0.75;0.62;;;;;;;18.52;100.00;98871.47;4479949;32;20435;-66
2023/06/24 05:40:09;;;;;;;3.47;0.80;;;;;;;18.59;100.00;98882.13;4477379;31;20171;-66
2023/06/24 05:42:36;;;;;;;3.30;1.05;;;;;;;18.73;100.00;98893.75;4474316;32;20168;-66
2023/06/24 05:45:04;;;;;;;4.05;0.70;;;;;;;18.69;100.00;98890.63;4476379;32;20212;-66
2023/06/24 05:47:32;;;;;;;0.98;0.70;;;;;;;18.68;100.00;98901.44;4485590;31;20100;-66
2023/06/24 05:49:59;;;;;;;3.75;0.90;;;;;;;18.69;100.00;98892.47;4472946;31;20093;-66
2023/06/24 05:52:28;;;;;;;1.10;0.70;;;;;;;18.78;100.00;98905.44;4482556;32;20101;-66
2023/06/24 05:54:56;;;;;;;1.02;0.77;;;;;;;18.88;100.00;98904.34;4475611;32;20112;-66
2023/06/24 05:57:23;;;;;;;2.92;0.75;;;;;;;18.94;100.00;98900.94;4478450;31;20557;-66
2023/06/24 05:59:50;;;;;;;1.85;0.60;;;;;;;19.08;100.00;98918.66;4475550;31;20133;-66
2023/06/24 06:02:17;;;;;;;1.35;0.60;;;;;;;19.11;100.00;98912.97;4478106;32;20108;-66
2023/06/24 06:04:46;;;;;;;4.75;0.85;;;;;;;18.93;100.00;98916.06;4474210;32;20116;-66
2023/06/24 06:07:13;;;;;;;1.45;0.93;;;;;;;18.83;100.00;98917.34;4482437;32;20187;-66
2023/06/24 06:09:40;;;;;;;1.00;0.70;;;;;;;18.85;100.00;98920.59;4484738;32;20108;-66
2023/06/24 06:12:09;;;;;;;1.12;0.50;;;;;;;19.01;100.00;98923.06;4478146;31;20157;-66
2023/06/24 06:14:36;;;;;;;2.35;0.70;;;;;;;19.30;100.00;98919.50;4473800;32;20541;-66
2023/06/24 06:17:04;;;;;;;2.85;0.80;;;;;;;19.55;100.00;98923.59;4478448;32;20092;-66
2023/06/24 06:19:31;;;;;;;2.40;0.70;;;;;;;19.58;100.00;98929.34;4473876;32;20186;-66
2023/06/24 06:21:58;;;;;;;3.15;1.05;;;;;;;19.51;100.00;98933.78;4470042;32;20089;-66
2023/06/24 06:24:25;;;;;;;0.60;0.60;;;;;;;19.68;100.00;98929.84;4469830;32;20088;-66
2023/06/24 06:26:53;;;;;;;6.32;0.77;;;;;;;19.81;100.00;98931.00;4470016;32;20084;-66
2023/06/24 06:29:20;;;;;;;1.90;0.73;;;;;;;19.92;100.00;98935.78;4469655;32;20115;-66
2023/06/24 06:31:47;;;;;;;3.60;0.70;;;;;;;20.10;100.00;98937.12;4468220;32;20101;-66
2023/06/24 06:34:14;;;;;;;2.60;0.70;;;;;;;20.01;100.00;98939.91;4470037;32;20085;-66
2023/06/24 06:36:41;;;;;;;0.68;0.52;;;;;;;20.16;100.00;98936.34;4469537;32;20097;-66
2023/06/24 06:39:08;;;;;;;4.37;0.85;;;;;;;20.25;100.00;98927.19;4469147;32;20105;-66
2023/06/24 06:41:36;;;;;;;1.17;0.77;;;;;;;20.27;100.00;98932.31;4469490;32;20096;-66
2023/06/24 06:44:03;;;;;;;0.82;0.60;;;;;;;20.37;100.00;98938.09;4468534;32;20097;-66
2023/06/24 06:46:30;;;;;;;1.15;0.70;;;;;;;20.54;100.00;98942.06;4469571;32;20123;-66
2023/06/24 06:48:58;;;;;;;0.70;0.60;;;;;;;20.67;100.00;98944.03;4469715;32;20097;-66
2023/06/24 06:51:25;;;;;;;1.98;0.75;;;;;;;20.63;100.00;98926.75;4469678;32;20112;-66
2023/06/24 06:53:52;;;;;;;1.75;0.80;;;;;;;20.58;100.00;98934.53;4469803;32;20466;-66
2023/06/24 06:56:26;;;;;;;1.17;0.80;;;;;;;20.44;100.00;98940.78;4469282;32;20099;-66
2023/06/24 06:58:53;;;;;;;;;;;;;;;20.60;100.00;98945.78;4469970;32;20097;-66
2023/06/24 07:01:21;;;;;;;1.08;0.80;;;;;;;20.63;100.00;98957.87;4469484;32;19992;-66
2023/06/24 07:03:49;;;;;;;1.15;0.88;;;;;;;20.61;100.00;98950.09;4469610;32;20149;-66
2023/06/24 07:06:19;;;;;;;0.82;0.80;;;;;;;20.81;100.00;98946.75;4469408;32;20123;-66
2023/06/24 07:08:46;;;;;;;1.33;0.82;;;;;;;20.91;100.00;98949.84;4469484;32;20131;-66
2023/06/24 07:11:13;;;;;;;1.20;1.00;;;;;;;20.86;100.00;98952.28;4484168;32;20180;-66
2023/06/24 07:13:40;;;;;;;2.03;1.10;;;;;;;20.92;100.00;98949.66;4475326;32;20117;-66
2023/06/24 07:16:08;;;;;;;1.40;1.10;;;;;;;20.91;100.00;98955.19;4469312;32;20092;-66
2023/06/24 07:18:36;;;;;;;1.48;1.00;;;;;;;20.89;100.00;98949.22;4469507;32;20175;-66
2023/06/24 07:21:03;;;;;;;1.50;0.90;;;;;;;20.70;100.00;98948.94;4469580;32;20104;-66
2023/06/24 07:23:30;;;;;;;1.80;1.10;;;;;;;21.08;100.00;98951.13;4469477;32;20541;-66
2023/06/24 07:25:58;;;;;;;2.22;1.20;;;;;;;21.30;100.00;98958.13;4469495;32;20093;-66
2023/06/24 07:28:29;;;;;;;1.30;1.08;;;;;;;21.23;100.00;98963.47;4469685;32;20157;-66
2023/06/24 07:30:57;;;;;;;2.15;1.17;;;;;;;21.37;100.00;98959.78;4469543;32;20168;-66
2023/06/24 07:33:24;;;;;;;1.60;1.00;;;;;;;21.33;100.00;98966.53;4469095;32;20153;-66
2023/06/24 07:35:51;;;;;;;1.10;1.00;;;;;;;21.34;100.00;98968.19;4469203;32;20172;-66
2023/06/24 07:38:18;;;;;;;3.70;0.98;;;;;;;21.56;100.00;98984.03;4469005;32;20168;-66
2023/06/24 07:40:45;;;;;;;2.00;1.15;;;;;;;21.41;100.00;98993.03;4469287;32;20100;-66
2023/06/24 07:43:13;;;;;;;3.22;1.20;;;;;;;21.41;100.00;98997.53;4469134;32;20117;-66
2023/06/24 07:45:40;;;;;;;4.15;1.10;;;;;;;21.41;100.00;98997.53;4469223;32;20101;-66
2023/06/24 07:48:07;;;;;;;1.55;1.30;;;;;;;21.72;100.00;98988.97;4468686;32;20136;-65
2023/06/24 07:50:35;;;;;;;1.30;1.10;;;;;;;21.69;100.00;98999.25;4467762;32;20123;-66
2023/06/24 07:53:03;;;;;;;1.37;1.10;;;;;;;21.78;100.00;99001.50;4468849;32;20101;-65
2023/06/24 07:55:30;;;;;;;1.42;1.23;;;;;;;22.04;100.00;98989.19;4482542;32;20462;-66
2023/06/24 07:57:58;;;;;;;1.75;1.27;;;;;;;22.43;100.00;98995.53;4480638;31;20118;-66
2023/06/24 08:00:25;;;;;;;1.02;0.90;;;;;;;22.46;100.00;98989.78;4481184;31;20093;-66
2023/06/24 08:02:55;;;;;;;1.67;1.10;;;;;;;22.56;100.00;98991.19;4481046;31;20119;-66
2023/06/24 08:05:22;;;;;;;1.98;1.55;;;;;;;22.80;100.00;98987.84;4481844;31;20108;-66
2023/06/24 08:07:51;;;;;;;2.25;1.20;;;;;;;22.98;100.00;98989.00;4483505;32;20470;-66
2023/06/24 08:10:18;;;;;;;1.33;1.17;;;;;;;23.10;100.00;98987.31;4483077;31;20100;-66
2023/06/24 08:12:46;;;;;;;1.37;1.10;;;;;;;23.24;99.31;98990.75;4478614;32;20127;-66
2023/06/24 08:15:13;;;;;;;1.75;1.10;;;;;;;23.15;99.98;98986.66;4467402;32;20101;-66
2023/06/24 08:17:40;;;;;;;1.40;1.23;;;;;;;22.61;100.00;99008.22;4468140;32;20108;-66
2023/06/24 08:20:08;;;;;;;0.80;0.80;;;;;;;22.37;100.00;99003.56;4468132;32;20093;-66
2023/06/24 08:22:35;;;;;;;0.80;0.80;;;;;;;22.60;100.00;99016.44;4468553;32;20447;-66
2023/06/24 08:25:04;;;;;;;2.10;1.10;;;;;;;23.08;100.00;99002.72;4468819;32;20589;-66
2023/06/24 08:27:31;;;;;;;1.52;0.80;;;;;;;23.04;100.00;98996.16;4468570;32;20088;-66
2023/06/24 08:29:58;;;;;;;2.58;1.30;;;;;;;22.79;100.00;98994.22;4468627;32;20119;-66
2023/06/24 08:32:25;;;;;;;1.35;1.02;;;;;;;22.48;100.00;99008.25;4468581;32;20152;-66
2023/06/24 08:34:53;;;;;;;1.02;0.93;;;;;;;22.57;100.00;99011.53;4468452;32;20093;-66
2023/06/24 08:37:20;;;;;;;1.10;1.00;;;;;;;22.63;100.00;99026.72;4468765;32;20490;-66
2023/06/24 08:39:47;;;;;;;1.25;1.10;;;;;;;22.68;100.00;99021.59;4468504;32;20603;-66
2023/06/24 08:42:14;;;;;;;1.25;0.73;;;;;;;22.95;100.00;99016.13;4468264;32;20084;-66
2023/06/24 08:44:41;;;;;;;1.08;0.95;;;;;;;22.91;100.00;99015.75;4468379;32;20159;-66
2023/06/24 08:47:09;;;;;;;1.02;0.82;;;;;;;22.71;100.00;99023.84;4468359;32;20093;-66
2023/06/24 08:49:55;;;;;;;1.52;1.08;;;;;;;22.55;100.00;99014.41;4468335;32;20119;-66
2023/06/24 08:52:25;;;;;;;1.55;1.10;;;;;;;22.49;100.00;99015.25;4468260;32;20136;-66
2023/06/24 08:54:55;;;;;;;1.02;0.73;;;;;;;22.56;100.00;99032.09;4466939;32;20120;-66
2023/06/24 08:57:23;;;;;;;1.25;0.95;;;;;;;22.43;100.00;99035.56;4466878;32;20111;-66
2023/06/24 08:59:51;;;;;;;1.65;1.10;;;;;;;22.60;100.00;99021.78;4466821;32;20136;-66
2023/06/24 09:02:18;;;;;;;1.00;0.90;;;;;;;22.59;100.00;99020.97;4468903;32;20620;-66
2023/06/24 09:04:45;;;;;;;0.90;0.90;;;;;;;22.37;100.00;99017.72;4470289;32;20160;-66
2023/06/24 09:07:13;;;;;;;1.05;0.90;;;;;;;22.28;100.00;99018.94;4470346;32;20115;-66
2023/06/24 09:09:44;;;;;;;3.28;1.00;;;;;;;22.47;100.00;99018.13;4475003;32;20097;-66
2023/06/24 09:12:14;;;;;;;1.12;1.02;;;;;;;22.99;100.00;99009.34;4486097;31;20084;-66
2023/06/24 09:14:48;;;;;;;1.83;0.90;;;;;;;23.45;99.04;99008.31;4485918;31;20100;-66
2023/06/24 09:17:15;;;;;;;0.70;0.60;;;;;;;23.35;98.86;99014.12;4485972;32;20099;-66
2023/06/24 09:19:43;;;;;;;1.55;0.88;;;;;;;23.34;99.66;99017.00;4486289;32;20178;-66
2023/06/24 09:22:17;;;;;;;1.20;0.90;;;;;;;23.50;98.19;99023.72;4485840;31;20118;-66
2023/06/24 09:24:46;;;;;;;0.90;0.85;;;;;;;23.89;99.81;99019.16;4486035;31;20457;-66
2023/06/24 09:27:20;;;;;;;1.00;0.80;;;;;;;23.98;96.10;99012.50;4485973;31;20100;-66
2023/06/24 09:29:47;;;;;;;0.88;0.80;;;;;;;23.58;98.80;99017.28;4486030;31;20142;-66
2023/06/24 09:32:15;;;;;;;1.62;0.85;;;;;;;23.53;99.07;99010.72;4484465;32;20119;-66
2023/06/24 09:34:43;;;;;;;1.65;0.98;;;;;;;23.70;98.34;99007.53;4485531;31;20406;-66
2023/06/24 09:37:21;;;;;;;2.15;0.85;;;;;;;23.35;96.35;99016.81;4485903;31;20124;-66
2023/06/24 09:39:48;;;;;;;1.30;1.08;;;;;;;23.73;99.59;99001.75;4485721;31;20548;-66
2023/06/24 09:42:20;;;;;;;1.52;0.70;;;;;;;24.06;94.48;99000.72;4485847;31;20101;-66
2023/06/24 09:44:53;;;;;;;1.70;1.00;;;;;;;24.49;92.53;99002.53;4485673;31;20107;-66
2023/06/24 09:47:24;;;;;;;3.05;1.23;;;;;;;23.98;91.81;99006.31;4485898;31;20735;-66
2023/06/24 09:49:53;;;;;;;0.90;0.90;;;;;;;23.70;94.58;99000.31;4485802;31;20122;-66
2023/06/24 09:52:21;;;;;;;3.78;1.20;;;;;;;23.90;97.34;98992.16;4485759;31;20119;-66
2023/06/24 09:54:51;;;;;;;0.93;0.90;;;;;;;24.37;94.29;98996.28;4485627;31;20088;-66
2023/06/24 09:57:27;;;;;;;1.62;1.10;;;;;;;24.32;91.74;98999.62;4485927;31;20609;-66
2023/06/24 09:59:54;;;;;;;1.12;1.02;;;;;;;24.04;91.17;98992.91;4485938;31;20092;-66
2023/06/24 10:02:22;;;;;;;1.30;1.12;;;;;;;23.77;90.09;98983.41;4484253;32;20092;-66
2023/06/24 10:04:50;;;;;;;2.28;0.82;;;;;;;23.54;94.98;98982.13;4485750;31;20092;-66
2023/06/24 10:07:18;;;;;;;2.00;1.00;;;;;;;23.61;97.92;98987.44;4484392;32;20101;-66
2023/06/24 10:09:45;;;;;;;0.98;0.85;;;;;;;23.44;96.34;98981.78;4479091;32;20596;-66
2023/06/24 10:12:12;;;;;;;2.08;0.82;;;;;;;23.44;97.89;98989.78;4469121;32;20170;-66
2023/06/24 10:14:40;;;;;;;1.10;1.00;;;;;;;23.69;96.89;98982.63;4483137;32;20088;-66
2023/06/24 10:17:07;;;;;;;3.10;1.33;;;;;;;23.59;95.88;98981.47;4485995;31;20152;-66
2023/06/24 10:19:39;;;;;;;1.73;1.12;;;;;;;23.35;97.23;98981.22;4485579;32;20093;-66
2023/06/24 10:22:10;;;;;;;1.30;1.20;;;;;;;23.50;96.42;98980.94;4485493;31;20139;-66
2023/06/24 10:24:39;;;;;;;1.10;1.00;;;;;;;23.74;92.98;98979.31;4485443;31;20446;-66
2023/06/24 10:27:08;;;;;;;1.42;1.10;;;;;;;23.94;90.57;98968.47;4484106;32;20092;-66
2023/06/24 10:29:37;;;;;;;1.30;1.20;;;;;;;24.09;91.70;98973.50;4485502;31;20096;-66
2023/06/24 10:32:09;;;;;;;1.80;0.90;;;;;;;24.38;91.14;98973.84;4485359;31;20089;-66
2023/06/24 10:34:45;;;;;;;2.15;0.95;;;;;;;24.48;94.28;98968.75;4485326;31;20106;-66
2023/06/24 10:37:20;;;;;;;2.67;1.17;;;;;;;24.30;93.27;98974.09;4485410;31;20111;-66
2023/06/24 10:39:57;;;;;;;1.10;1.00;;;;;;;24.41;88.14;98978.75;4485293;31;20163;-66
2023/06/24 10:42:28;;;;;;;1.33;1.00;;;;;;;24.67;89.08;98969.63;4485392;32;20096;-66
2023/06/24 10:44:57;;;;;;;1.00;0.90;;;;;;;24.55;89.43;98972.19;4485317;31;20107;-66
2023/06/24 10:47:25;;;;;;;1.55;1.10;;;;;;;24.84;89.33;98969.81;4485330;31;20160;-66
2023/06/24 10:49:53;;;;;;;1.85;1.33;;;;;;;24.68;92.28;98978.47;4485109;31;20430;-66
2023/06/24 10:52:22;;;;;;;1.60;1.30;;;;;;;24.60;85.63;98984.94;4485353;31;20134;-66
2023/06/24 10:54:51;;;;;;;1.42;1.33;;;;;;;24.76;85.00;98981.66;4485015;32;20089;-66
2023/06/24 10:57:25;;;;;;;1.17;1.08;;;;;;;25.20;83.91;98972.66;4485349;31;20092;-66
2023/06/24 10:59:54;;;;;;;1.02;0.93;;;;;;;25.27;87.30;98989.47;4485408;31;20434;-66
2023/06/24 11:02:24;;;;;;;1.20;1.08;;;;;;;25.22;86.50;98990.16;4485246;31;20514;-66
2023/06/24 11:04:55;;;;;;;0.90;0.90;;;;;;;25.09;87.51;98991.16;4485382;31;20164;-66
2023/06/24 11:07:27;;;;;;;0.70;0.70;;;;;;;25.82;87.25;98999.22;4485348;31;20447;-66
2023/06/24 11:10:01;;;;;;;2.92;0.90;;;;;;;25.98;85.54;98995.03;4478953;32;20116;-66
2023/06/24 11:12:34;;;;;;;3.05;0.75;;;;;;;25.60;86.80;98997.09;4470057;32;20151;-66
2023/06/24 11:15:06;;;;;;;1.37;1.02;;;;;;;25.20;89.67;99002.97;4484984;31;20152;-66
2023/06/24 11:17:35;;;;;;;2.20;1.02;;;;;;;25.23;93.22;98993.66;4485176;32;20489;-66
2023/06/24 11:20:10;;;;;;;6.00;2.60;;;;;;;25.72;88.50;98997.09;4485354;32;20112;-66
2023/06/24 11:22:39;;;;;;;1.10;0.90;;;;;;;25.43;85.71;98985.38;4485121;31;20396;-66
2023/06/24 11:25:14;;;;;;;0.82;0.80;;;;;;;25.47;88.59;98986.53;4484977;31;20084;-66
2023/06/24 11:27:42;;;;;;;2.70;1.00;;;;;;;25.03;88.24;98989.38;4481098;31;20093;-66
2023/06/24 11:30:09;;;;;;;1.73;1.15;;;;;;;25.53;86.91;98982.94;4479313;31;20160;-66
2023/06/24 11:32:41;;;;;;;1.67;1.00;;;;;;;25.22;86.03;98974.06;4483583;32;20167;-66
2023/06/24 11:35:14;;;;;;;2.25;1.40;;;;;;;25.12;89.81;98968.44;4484800;31;20092;-66